Time;durP1;ratioP1;P1;durP2;ratioP2;P2;SDS_P1;SDS_P2;PMS_P1;PMS_P2;Temp;Humidity;BMP_temperature;BMP_pressure;BME280_temperature;BME280_humidity;BME280_pressure;Samples;Min_cycle;Max_cycle;Signal;HPM_P1;HPM_P2
2023/01/08 00:00:49;;;;;;;186.32;66.82;;;;;;;0.78;100.00;98004.97;5022564;28;20029;-78
2023/01/08 00:03:14;;;;;;;143.82;50.70;;;;;;;0.87;100.00;98015.34;5020771;28;20459;-77
2023/01/08 00:05:40;;;;;;;132.07;51.50;;;;;;;0.64;100.00;97994.69;5047887;28;20025;-78
2023/01/08 00:08:08;;;;;;;129.55;51.28;;;;;;;0.69;100.00;97982.28;5050719;28;20032;-78
2023/01/08 00:10:35;;;;;;;118.22;46.10;;;;;;;0.76;100.00;97996.22;5030961;28;20054;-77
2023/01/08 00:13:00;;;;;;;107.88;46.00;;;;;;;0.67;100.00;97985.84;5027143;28;20567;-78
2023/01/08 00:15:27;;;;;;;119.25;47.67;;;;;;;0.64;100.00;97985.91;5052328;28;20107;-78
2023/01/08 00:17:52;;;;;;;122.28;45.42;;;;;;;0.59;100.00;97996.50;5028287;28;20033;-77
2023/01/08 00:20:18;;;;;;;122.15;47.53;;;;;;;0.67;100.00;98004.28;5027824;28;20472;-76
2023/01/08 00:22:43;;;;;;;133.98;48.97;;;;;;;0.70;100.00;98009.50;5025009;28;20081;-78
2023/01/08 00:25:09;;;;;;;103.47;39.33;;;;;;;0.53;100.00;97992.19;5016843;28;20029;-79
2023/01/08 00:27:34;;;;;;;97.90;40.50;;;;;;;0.54;100.00;98001.84;5022142;28;20400;-77
2023/01/08 00:33:45;;;;;;;95.28;38.92;;;;;;;0.09;100.00;97938.53;4971947;28;20084;-78
2023/01/08 00:36:20;;;;;;;115.97;46.35;;;;;;;0.43;100.00;98003.75;5028154;28;20040;-78
2023/01/08 00:38:46;;;;;;;105.38;41.38;;;;;;;0.38;100.00;98016.09;5034670;28;20028;-78
2023/01/08 00:41:13;;;;;;;110.43;42.75;;;;;;;0.38;100.00;98010.84;5019262;28;20392;-78
2023/01/08 00:43:38;;;;;;;116.35;45.67;;;;;;;0.38;100.00;98016.09;5027232;28;20029;-79
2023/01/08 00:46:04;;;;;;;116.30;46.13;;;;;;;0.39;100.00;98016.97;5025291;28;20075;-78
2023/01/08 00:48:32;;;;;;;102.63;42.35;;;;;;;0.25;100.00;98014.53;5052636;28;20483;-78
2023/01/08 00:51:02;;;;;;;104.65;42.78;;;;;;;0.17;100.00;98011.16;5018959;28;21323;-76
2023/01/08 00:53:27;;;;;;;109.50;42.92;;;;;;;0.19;100.00;98025.13;5013769;28;20051;-78
2023/01/08 00:56:03;;;;;;;97.82;42.25;;;;;;;0.12;100.00;98026.13;5021790;28;20108;-79
2023/01/08 00:58:28;;;;;;;121.10;43.90;;;;;;;0.13;100.00;98009.44;5008079;28;20037;-78
2023/01/08 01:00:54;;;;;;;103.72;38.83;;;;;;;0.20;100.00;98023.38;5019733;28;20095;-77
2023/01/08 01:03:20;;;;;;;101.80;41.75;;;;;;;0.23;100.00;98037.38;5004707;28;20037;-77
2023/01/08 01:05:45;;;;;;;109.38;41.05;;;;;;;0.23;100.00;98011.06;5002171;28;20477;-77
2023/01/08 01:08:11;;;;;;;107.22;41.85;;;;;;;0.13;100.00;98009.44;5004279;28;20052;-77
2023/01/08 01:10:38;;;;;;;108.15;42.00;;;;;;;0.12;100.00;97997.19;5031162;28;20037;-77
2023/01/08 01:13:03;;;;;;;106.43;40.42;;;;;;;0.15;100.00;98012.06;5018702;28;20124;-77
2023/01/08 01:15:29;;;;;;;90.60;37.65;;;;;;;0.22;100.00;98017.19;5004522;28;20451;-77
2023/01/08 01:17:57;;;;;;;90.63;39.53;;;;;;;0.31;100.00;98014.44;5007093;28;20086;-78
2023/01/08 01:20:23;;;;;;;95.32;37.20;;;;;;;-0.01;100.00;97988.59;5001622;28;20028;-78
2023/01/08 01:22:52;;;;;;;101.15;35.97;;;;;;;-0.14;100.00;97973.00;5010416;28;20083;-78
2023/01/08 01:25:18;;;;;;;101.88;42.03;;;;;;;0.13;100.00;97998.91;5023651;28;20494;-78
2023/01/08 01:27:44;;;;;;;91.88;39.67;;;;;;;0.17;100.00;98003.25;5020138;28;20029;-78
2023/01/08 01:30:12;;;;;;;89.20;39.20;;;;;;;0.14;100.00;98002.44;5016204;28;20033;-78
2023/01/08 01:32:38;;;;;;;96.75;38.28;;;;;;;0.05;100.00;97994.66;5026920;28;20032;-78
2023/01/08 01:35:07;;;;;;;96.30;37.90;;;;;;;0.12;100.00;98004.22;5004329;28;20425;-78
2023/01/08 01:37:32;;;;;;;106.78;42.55;;;;;;;0.04;100.00;97998.16;5025073;28;20426;-77
2023/01/08 01:39:58;;;;;;;111.68;41.05;;;;;;;0.08;100.00;98005.13;5024815;28;20025;-78
2023/01/08 01:42:38;;;;;;;103.68;41.08;;;;;;;-0.01;100.00;97991.25;5008292;28;20489;-78
2023/01/08 01:45:17;;;;;;;95.78;38.35;;;;;;;0.00;100.00;97995.59;5020026;28;20408;-78
2023/01/08 01:47:45;;;;;;;79.70;34.83;;;;;;;0.11;100.00;98007.72;5009799;28;20523;-77
2023/01/08 01:50:20;;;;;;;86.82;34.50;;;;;;;-0.02;100.00;98007.00;5030535;28;20103;-78
2023/01/08 01:53:02;;;;;;;92.43;35.92;;;;;;;-0.12;100.00;98008.00;5001180;28;20021;-78
2023/01/08 01:55:29;;;;;;;66.93;25.03;;;;;;;-0.14;100.00;98005.41;5045939;28;20032;-78
2023/01/08 01:58:05;;;;;;;100.85;33.83;;;;;;;-0.21;100.00;98002.88;5027639;28;20307;-77
2023/01/08 02:00:32;;;;;;;80.47;31.67;;;;;;;-0.22;100.00;98006.41;5003626;28;20025;-78
2023/01/08 02:02:58;;;;;;;62.85;27.20;;;;;;;-0.21;100.00;98011.63;5031958;28;20053;-78
2023/01/08 02:05:29;;;;;;;62.97;27.98;;;;;;;-0.21;100.00;98016.00;5021204;28;20029;-77
2023/01/08 02:08:07;;;;;;;72.50;28.65;;;;;;;-0.23;100.00;98015.16;5024241;28;20529;-79
2023/01/08 02:10:38;;;;;;;65.75;27.38;;;;;;;-0.15;100.00;98021.19;5020530;28;20025;-77
2023/01/08 02:13:12;;;;;;;66.53;28.60;;;;;;;-0.15;100.00;98013.31;5040795;28;20487;-78
2023/01/08 02:15:52;;;;;;;66.72;27.50;;;;;;;-0.18;100.00;98010.72;5019507;28;20033;-78
2023/01/08 02:18:22;;;;;;;65.93;28.38;;;;;;;-0.25;100.00;98007.31;5021871;28;20033;-78
2023/01/08 02:20:57;;;;;;;64.25;27.35;;;;;;;-0.23;100.00;98012.53;5007536;28;20036;-78
2023/01/08 02:23:35;;;;;;;61.65;26.38;;;;;;;-0.24;100.00;98002.91;5029711;28;20476;-77
2023/01/08 02:26:24;;;;;;;60.50;26.77;;;;;;;-0.14;100.00;98001.91;5031208;28;20027;-77
2023/01/08 02:29:13;;;;;;;56.42;24.40;;;;;;;-0.16;100.00;98001.06;5018788;28;20032;-78
2023/01/08 02:31:40;;;;;;;58.55;24.75;;;;;;;-0.18;100.00;97998.44;5023466;28;20029;-77
2023/01/08 02:34:06;;;;;;;62.30;25.95;;;;;;;-0.26;100.00;97991.56;5015416;28;20025;-76
2023/01/08 02:36:37;;;;;;;65.93;26.40;;;;;;;-0.22;100.00;98002.03;5013987;28;23114;-81
2023/01/08 02:39:40;;;;;;;61.38;25.63;;;;;;;-0.25;100.00;97995.94;5052702;28;20052;-73
2023/01/08 02:42:26;;;;;;;;;;;;;;;-0.23;100.00;97996.78;5048690;28;20477;-73
2023/01/08 02:44:54;;;;;;;49.15;22.33;;;;;;;-0.50;100.00;97969.09;5007742;28;19912;-73
2023/01/08 02:47:44;;;;;;;51.55;23.38;;;;;;;-0.37;100.00;97990.84;5034496;28;20036;-73
2023/01/08 02:50:17;;;;;;;51.85;24.08;;;;;;;-0.22;100.00;97993.28;5027309;28;20032;-73
2023/01/08 02:52:51;;;;;;;48.00;20.38;;;;;;;-0.23;100.00;97996.78;5036314;28;20067;-73
2023/01/08 02:55:20;;;;;;;56.10;23.35;;;;;;;-0.22;100.00;97985.38;5034774;28;20056;-74
2023/01/08 02:57:46;;;;;;;54.17;23.08;;;;;;;-0.15;100.00;97987.91;5034825;28;20079;-73
2023/01/08 03:00:12;;;;;;;51.05;21.38;;;;;;;-0.30;100.00;97982.84;5017935;28;20053;-73
2023/01/08 03:02:38;;;;;;;50.38;22.58;;;;;;;-0.23;100.00;97995.03;5034050;28;20119;-73
2023/01/08 03:05:17;;;;;;;60.35;26.17;;;;;;;-0.20;100.00;97992.34;5017887;28;20025;-74
2023/01/08 03:07:42;;;;;;;48.63;22.05;;;;;;;-0.31;100.00;97985.50;5034310;28;20027;-74
2023/01/08 03:10:08;;;;;;;62.83;25.58;;;;;;;-0.43;100.00;97983.88;5017669;28;20033;-74
2023/01/08 03:12:43;;;;;;;72.55;30.77;;;;;;;-0.29;100.00;97994.22;5028152;28;20444;-73
2023/01/08 03:15:12;;;;;;;71.60;29.63;;;;;;;-0.33;100.00;97987.25;5032081;28;20108;-74
2023/01/08 03:17:42;;;;;;;63.47;27.20;;;;;;;-0.19;100.00;98001.13;5014201;28;20408;-74
2023/01/08 03:20:12;;;;;;;62.58;26.80;;;;;;;-0.37;100.00;97990.84;5014015;28;20373;-74
2023/01/08 03:22:40;;;;;;;56.40;25.65;;;;;;;-0.38;100.00;97994.34;5014422;28;20534;-73
2023/01/08 03:25:06;;;;;;;60.13;26.00;;;;;;;-0.47;100.00;98005.81;5014263;28;20382;-73
2023/01/08 03:27:34;;;;;;;77.40;31.45;;;;;;;-0.40;100.00;98009.25;5014398;28;20536;-73
2023/01/08 03:29:59;;;;;;;84.40;34.72;;;;;;;-0.58;100.00;97994.56;5025705;28;20477;-73
2023/01/08 03:32:28;;;;;;;82.93;33.40;;;;;;;-0.49;100.00;98007.56;5021124;28;20025;-72
2023/01/08 03:34:55;;;;;;;86.88;33.25;;;;;;;-0.42;100.00;98013.63;5031549;28;20021;-73
2023/01/08 03:37:25;;;;;;;74.80;31.88;;;;;;;-0.31;100.00;98001.25;5014276;28;20028;-73
2023/01/08 03:39:58;;;;;;;74.05;30.58;;;;;;;-0.37;100.00;97999.56;5013877;28;20013;-73
2023/01/08 03:42:24;;;;;;;69.05;29.05;;;;;;;-0.55;100.00;97995.38;5004050;28;20104;-74
2023/01/08 03:44:50;;;;;;;68.88;28.00;;;;;;;-0.63;100.00;97994.63;5033515;28;20021;-73
2023/01/08 03:47:17;;;;;;;56.47;23.27;;;;;;;-0.62;100.00;98012.13;5045838;28;20503;-74
2023/01/08 03:49:43;;;;;;;48.08;20.98;;;;;;;-0.78;100.00;97996.53;5013664;28;20067;-74
2023/01/08 03:52:20;;;;;;;51.97;22.35;;;;;;;-0.82;100.00;97997.44;5013695;28;20045;-72
2023/01/08 03:54:45;;;;;;;53.00;22.52;;;;;;;-0.82;100.00;97998.31;5013414;28;20025;-73
2023/01/08 03:57:11;;;;;;;50.40;20.23;;;;;;;-0.88;100.00;98008.88;5013718;28;20063;-74
2023/01/08 03:59:36;;;;;;;46.47;20.50;;;;;;;-0.91;100.00;98011.53;5013523;28;20376;-73
2023/01/08 04:02:02;;;;;;;48.90;20.23;;;;;;;-0.87;100.00;98021.13;5013375;28;20139;-73
2023/01/08 04:04:28;;;;;;;51.65;18.67;;;;;;;-0.90;100.00;98021.16;5031199;28;20061;-73
2023/01/08 04:06:53;;;;;;;46.33;18.77;;;;;;;-0.94;100.00;98023.81;5013389;28;20029;-74
2023/01/08 04:09:19;;;;;;;38.42;17.05;;;;;;;-0.95;100.00;98025.56;5030880;28;20037;-74
2023/01/08 04:11:44;;;;;;;33.17;16.67;;;;;;;-1.00;100.00;98032.63;5013145;28;20029;-74
2023/01/08 04:14:11;;;;;;;37.15;16.23;;;;;;;-0.92;100.00;98028.16;5030194;28;20441;-73
2023/01/08 04:16:36;;;;;;;41.42;17.52;;;;;;;-0.96;100.00;98026.47;5031277;28;20499;-74
2023/01/08 04:19:02;;;;;;;43.70;16.45;;;;;;;-0.98;100.00;98043.97;5030778;28;20018;-74
2023/01/08 04:21:28;;;;;;;40.80;18.15;;;;;;;-1.01;100.00;98033.50;4996833;28;20458;-74
2023/01/08 04:23:54;;;;;;;52.35;21.55;;;;;;;-1.16;100.00;98024.00;5013764;28;20018;-74
2023/01/08 04:26:22;;;;;;;76.13;25.77;;;;;;;-1.04;100.00;98043.13;5013520;28;20091;-75
2023/01/08 04:28:48;;;;;;;68.97;25.42;;;;;;;-0.94;100.00;98029.94;4996617;28;20032;-74
2023/01/08 04:31:13;;;;;;;62.10;21.50;;;;;;;-0.98;100.00;98030.84;5030908;28;20404;-75
2023/01/08 04:33:39;;;;;;;50.83;21.17;;;;;;;-0.93;100.00;98036.94;5013226;28;20122;-75
2023/01/08 04:36:04;;;;;;;83.63;27.88;;;;;;;-0.88;100.00;98035.13;4996933;28;20034;-74
2023/01/08 04:38:30;;;;;;;79.78;27.83;;;;;;;-0.88;100.00;98024.63;5013093;28;20398;-74
2023/01/08 04:41:11;;;;;;;81.97;23.98;;;;;;;-0.88;100.00;98029.88;5013475;28;20133;-74
2023/01/08 04:43:36;;;;;;;74.10;27.35;;;;;;;-0.88;100.00;98031.63;5008681;28;20033;-74
2023/01/08 04:46:25;;;;;;;69.22;26.20;;;;;;;-1.12;100.00;97988.97;5013434;28;20029;-76
2023/01/08 04:49:10;;;;;;;93.53;30.50;;;;;;;-0.77;100.00;98035.03;5020060;28;20077;-73
2023/01/08 04:51:36;;;;;;;90.50;28.38;;;;;;;-0.95;100.00;98006.34;5050562;28;20036;-75
2023/01/08 04:54:05;;;;;;;77.38;27.23;;;;;;;-0.88;100.00;98018.50;5012388;28;20021;-74
2023/01/08 04:56:53;;;;;;;72.55;26.38;;;;;;;-0.78;100.00;98028.91;5024528;28;20108;-75
2023/01/08 04:59:19;;;;;;;79.05;27.55;;;;;;;-0.92;100.00;98017.66;5012780;28;20070;-75
2023/01/08 05:01:46;;;;;;;68.10;26.15;;;;;;;-0.87;100.00;98025.50;5024105;28;20056;-75
2023/01/08 05:04:11;;;;;;;76.10;30.58;;;;;;;-0.74;100.00;98030.59;5016358;28;20032;-73
2023/01/08 05:06:37;;;;;;;74.45;29.75;;;;;;;-0.71;100.00;98035.81;5020747;28;20412;-74
2023/01/08 05:09:03;;;;;;;81.57;29.15;;;;;;;-0.75;100.00;98035.88;5012748;28;20144;-74
2023/01/08 05:11:28;;;;;;;65.88;27.27;;;;;;;-0.73;100.00;98044.59;5012380;28;20037;-75
2023/01/08 05:13:55;;;;;;;59.78;25.38;;;;;;;-0.88;100.00;98035.13;4996245;28;20060;-75
2023/01/08 05:16:21;;;;;;;70.63;28.13;;;;;;;-0.84;100.00;98042.09;5012816;28;20045;-75
2023/01/08 05:18:47;;;;;;;97.20;35.65;;;;;;;-0.92;100.00;98038.66;5012290;28;20591;-75
2023/01/08 05:21:13;;;;;;;78.57;31.58;;;;;;;-0.99;100.00;98038.75;5012692;28;20500;-74
2023/01/08 05:23:38;;;;;;;87.40;33.78;;;;;;;-0.98;100.00;98046.59;5012243;28;20172;-74
2023/01/08 05:26:05;;;;;;;70.28;28.63;;;;;;;-0.88;100.00;98050.88;5014877;28;20029;-74
2023/01/08 05:28:32;;;;;;;73.80;31.42;;;;;;;-0.99;100.00;98044.88;5016456;28;20029;-73
2023/01/08 05:30:58;;;;;;;78.72;33.17;;;;;;;-1.10;100.00;98038.81;5016556;28;20033;-74
2023/01/08 05:33:24;;;;;;;73.13;29.48;;;;;;;-1.14;100.00;98043.22;4999404;28;20025;-74
2023/01/08 05:35:49;;;;;;;61.22;25.95;;;;;;;-1.23;100.00;98026.69;4999842;28;20076;-74
2023/01/08 05:38:15;;;;;;;63.55;27.80;;;;;;;-1.20;100.00;98047.66;5016143;28;20056;-75
2023/01/08 05:40:40;;;;;;;55.13;22.50;;;;;;;-1.21;100.00;98045.91;5015974;28;20030;-73
2023/01/08 05:43:06;;;;;;;50.47;21.27;;;;;;;-1.29;100.00;98037.25;5033665;28;20057;-73
2023/01/08 05:45:32;;;;;;;49.63;20.55;;;;;;;-1.33;100.00;98041.63;4999735;28;20029;-75
2023/01/08 05:47:58;;;;;;;52.80;22.33;;;;;;;-1.40;100.00;98036.44;5015964;28;20033;-75
2023/01/08 05:50:23;;;;;;;71.57;24.88;;;;;;;-1.44;100.00;98030.34;4998788;28;20466;-75
2023/01/08 05:52:49;;;;;;;69.10;26.23;;;;;;;-1.51;100.00;98030.41;5016008;28;20029;-74
2023/01/08 05:55:15;;;;;;;65.93;24.60;;;;;;;-1.53;100.00;98040.00;5015616;28;20568;-75
2023/01/08 05:57:40;;;;;;;77.32;24.15;;;;;;;-1.54;100.00;98020.81;5015644;28;20148;-74
2023/01/08 06:00:07;;;;;;;83.68;28.10;;;;;;;-1.42;100.00;98035.59;5033400;28;20528;-75
2023/01/08 06:02:39;;;;;;;73.90;27.77;;;;;;;-1.34;100.00;98036.38;5015404;28;20076;-74
2023/01/08 06:05:05;;;;;;;94.03;29.60;;;;;;;-1.32;100.00;98045.09;5015944;28;20432;-74
2023/01/08 06:07:30;;;;;;;89.15;29.73;;;;;;;-1.46;100.00;98026.00;5033023;28;20037;-74
2023/01/08 06:09:56;;;;;;;90.93;31.58;;;;;;;-1.45;100.00;98033.84;5033414;28;20511;-75
2023/01/08 06:12:21;;;;;;;91.30;31.75;;;;;;;-1.36;100.00;98040.78;5015304;28;20045;-73
2023/01/08 06:14:47;;;;;;;96.75;33.90;;;;;;;-1.27;100.00;98044.22;5015470;28;20044;-74
2023/01/08 06:17:14;;;;;;;104.88;33.85;;;;;;;-1.25;100.00;98034.56;5015224;28;20159;-74
2023/01/08 06:19:40;;;;;;;92.00;33.08;;;;;;;-1.22;100.00;98025.78;4999019;28;20021;-74
2023/01/08 06:22:05;;;;;;;85.32;31.88;;;;;;;-1.28;100.00;98025.84;4999023;28;20044;-75
2023/01/08 06:24:31;;;;;;;72.05;30.15;;;;;;;-1.31;100.00;98020.63;5015259;28;20037;-76
2023/01/08 06:26:56;;;;;;;83.47;31.02;;;;;;;-1.35;100.00;98026.75;5009752;28;20485;-75
2023/01/08 06:29:22;;;;;;;77.93;31.13;;;;;;;-1.36;100.00;98020.69;5033031;28;20036;-76
2023/01/08 06:31:48;;;;;;;90.95;35.15;;;;;;;-1.26;100.00;98032.81;4999096;28;20064;-76
2023/01/08 06:34:13;;;;;;;103.90;37.58;;;;;;;-1.15;100.00;98041.50;5015108;28;20030;-75
2023/01/08 06:36:39;;;;;;;111.53;41.15;;;;;;;-1.18;100.00;98036.28;4998448;28;20044;-75
2023/01/08 06:39:06;;;;;;;101.80;39.70;;;;;;;-1.12;100.00;98040.59;4998953;28;20033;-75
2023/01/08 06:41:31;;;;;;;95.60;36.42;;;;;;;-1.05;100.00;98041.41;4998862;28;20037;-75
2023/01/08 06:43:57;;;;;;;86.00;33.63;;;;;;;-0.97;100.00;98037.84;5015404;28;20036;-75
2023/01/08 06:46:25;;;;;;;78.78;30.38;;;;;;;-0.87;100.00;98041.25;4998809;28;20112;-76
2023/01/08 06:48:51;;;;;;;79.78;32.05;;;;;;;0.26;100.00;98066.25;4998381;28;20173;-76
2023/01/08 06:51:16;;;;;;;67.18;28.33;;;;;;;1.56;100.00;98051.03;5015509;28;20061;-75
2023/01/08 06:53:42;;;;;;;68.13;28.02;;;;;;;2.90;100.00;98025.28;5015977;28;20485;-77
2023/01/08 06:56:09;;;;;;;65.30;26.13;;;;;;;4.25;100.00;97995.16;5007612;28;20029;-78
2023/01/08 06:58:36;;;;;;;81.32;27.67;;;;;;;4.75;96.06;97954.75;5015696;28;20444;-76
2023/01/08 07:01:01;;;;;;;59.45;25.58;;;;;;;5.59;87.83;97939.47;5012690;28;20416;-76
2023/01/08 07:03:27;;;;;;;70.00;28.27;;;;;;;6.02;82.53;97927.31;5015502;28;20036;-75
2023/01/08 07:05:53;;;;;;;61.33;26.63;;;;;;;6.07;79.02;97906.75;5003389;28;20030;-75
2023/01/08 07:08:19;;;;;;;54.58;23.98;;;;;;;6.05;77.19;97892.66;4996516;28;20055;-74
2023/01/08 07:10:44;;;;;;;57.38;24.15;;;;;;;6.58;74.24;97899.41;4997251;28;20065;-76
2023/01/08 07:13:11;;;;;;;52.50;23.90;;;;;;;7.05;72.41;97892.09;5012634;28;20033;-77
2023/01/08 07:15:40;;;;;;;57.60;25.23;;;;;;;7.50;69.08;97878.59;5012944;28;20108;-79
2023/01/08 07:18:08;;;;;;;60.85;27.35;;;;;;;7.77;68.78;97884.47;4995029;28;20022;-77
2023/01/08 07:20:34;;;;;;;84.82;35.17;;;;;;;8.08;65.77;97869.69;5013237;28;20017;-77
2023/01/08 07:23:04;;;;;;;124.35;51.95;;;;;;;8.34;66.25;97875.59;4997549;28;20040;-75
2023/01/08 07:25:31;;;;;;;167.05;67.10;;;;;;;8.45;65.83;97870.63;5013925;28;20025;-78
2023/01/08 07:27:57;;;;;;;154.68;60.30;;;;;;;8.59;64.23;97846.81;4997386;28;20078;-76
2023/01/08 07:30:22;;;;;;;167.85;73.65;;;;;;;8.77;64.13;97845.91;5013764;28;20116;-75
2023/01/08 07:32:48;;;;;;;150.75;68.47;;;;;;;8.96;64.11;97852.06;5014065;28;20586;-76
2023/01/08 07:35:13;;;;;;;140.63;57.90;;;;;;;9.20;62.81;97844.59;5012474;28;20624;-77
2023/01/08 07:37:40;;;;;;;148.65;64.47;;;;;;;9.38;63.32;97849.00;5013979;28;20025;-75
2023/01/08 07:40:07;;;;;;;153.57;65.00;;;;;;;9.76;62.70;97841.59;5011270;28;20013;-75
2023/01/08 07:42:35;;;;;;;138.45;64.18;;;;;;;9.80;61.94;97833.34;4999855;28;20032;-81
2023/01/08 07:45:01;;;;;;;139.63;62.63;;;;;;;9.99;60.58;97822.53;5009187;28;20033;-83
2023/01/08 07:47:26;;;;;;;155.18;67.72;;;;;;;10.20;60.00;97824.03;4996032;28;20424;-81
2023/01/08 07:49:52;;;;;;;150.70;63.67;;;;;;;10.53;59.51;97823.06;5026945;28;20038;-86
2023/01/08 07:52:18;;;;;;;150.25;65.45;;;;;;;10.50;59.18;97809.84;4997478;28;20027;-86
2023/01/08 07:54:43;;;;;;;137.25;66.60;;;;;;;9.84;61.12;97798.44;5001140;28;20488;-83
2023/01/08 07:57:09;;;;;;;143.35;67.82;;;;;;;10.29;60.24;97798.59;5013087;28;20029;-83
2023/01/08 07:59:34;;;;;;;140.07;66.20;;;;;;;10.55;59.71;97808.63;5015841;28;20037;-78
2023/01/08 08:02:00;;;;;;;148.32;65.22;;;;;;;10.30;60.52;97825.22;4992452;28;20025;-79
2023/01/08 08:04:26;;;;;;;143.77;66.45;;;;;;;10.41;60.63;97810.38;4996686;28;20124;-76
2023/01/08 08:06:53;;;;;;;125.88;58.80;;;;;;;10.73;60.21;97818.31;5013754;28;20051;-77
2023/01/08 08:09:18;;;;;;;116.57;56.08;;;;;;;10.94;60.15;97816.16;4997157;28;20022;-77
2023/01/08 08:11:44;;;;;;;110.95;54.22;;;;;;;10.75;60.04;97802.13;5013887;28;20029;-77
2023/01/08 08:14:09;;;;;;;121.50;57.55;;;;;;;11.18;58.10;97800.44;4997489;28;20052;-77
2023/01/08 08:16:35;;;;;;;104.55;50.85;;;;;;;11.41;58.49;97816.00;4998212;28;20148;-75
2023/01/08 08:19:00;;;;;;;97.55;49.40;;;;;;;11.62;57.61;97819.16;4997186;28;20025;-76
2023/01/08 08:21:28;;;;;;;107.57;52.85;;;;;;;11.74;57.53;97813.94;5013766;28;20481;-77
2023/01/08 08:23:54;;;;;;;104.32;50.95;;;;;;;12.15;56.57;97822.03;5014171;28;20060;-76
2023/01/08 08:26:19;;;;;;;109.80;56.42;;;;;;;12.21;55.94;97808.22;5013585;28;20033;-76
2023/01/08 08:28:45;;;;;;;137.90;66.35;;;;;;;12.43;55.61;97824.69;4997277;28;20040;-77
2023/01/08 08:31:10;;;;;;;127.72;63.25;;;;;;;12.31;56.04;97817.44;5013843;28;20465;-77
2023/01/08 08:33:36;;;;;;;124.88;61.17;;;;;;;12.54;56.16;97832.03;5013848;28;20021;-77
2023/01/08 08:36:02;;;;;;;121.03;56.92;;;;;;;12.38;55.80;97812.53;5013855;28;20065;-77
2023/01/08 08:38:27;;;;;;;102.97;53.28;;;;;;;12.36;55.28;97801.03;4997467;28;20040;-76
2023/01/08 08:40:53;;;;;;;116.05;56.88;;;;;;;12.79;54.35;97804.44;5013443;28;20413;-76
2023/01/08 08:43:18;;;;;;;101.22;50.17;;;;;;;13.24;53.34;97806.75;4997258;28;20462;-76
2023/01/08 08:45:44;;;;;;;102.45;52.20;;;;;;;13.35;53.03;97808.69;5013996;28;20030;-76
2023/01/08 08:48:10;;;;;;;104.35;52.88;;;;;;;13.96;51.74;97806.13;5013587;28;20045;-76
2023/01/08 08:50:36;;;;;;;89.63;48.67;;;;;;;13.64;52.35;97798.59;5013809;28;20117;-76
2023/01/08 08:53:05;;;;;;;86.50;45.33;;;;;;;13.48;52.19;97794.28;5014101;28;20489;-77
2023/01/08 08:55:32;;;;;;;86.13;42.33;;;;;;;13.63;51.52;97789.66;4997486;28;20112;-77
2023/01/08 08:58:03;;;;;;;78.97;38.70;;;;;;;14.14;51.47;97803.94;5014044;28;20056;-76
2023/01/08 09:00:29;;;;;;;74.07;36.65;;;;;;;14.68;49.88;97799.06;5013668;28;20033;-77
2023/01/08 09:02:54;;;;;;;75.82;36.95;;;;;;;14.45;49.89;97781.06;4997387;28;20025;-77
2023/01/08 09:05:20;;;;;;;77.43;38.45;;;;;;;14.64;49.36;97779.56;4997027;28;20032;-77
2023/01/08 09:07:45;;;;;;;62.83;33.50;;;;;;;14.51;49.42;97786.84;5013748;28;20163;-77
2023/01/08 09:10:11;;;;;;;64.20;32.17;;;;;;;14.86;49.18;97783.38;4996987;28;20378;-78
2023/01/08 09:12:36;;;;;;;49.33;26.13;;;;;;;14.82;49.16;97776.50;5013580;28;20485;-78
2023/01/08 09:15:02;;;;;;;46.83;24.92;;;;;;;13.79;50.51;97759.88;4997426;28;20026;-79
2023/01/08 09:17:28;;;;;;;57.25;27.65;;;;;;;14.23;50.43;97767.44;4996874;28;20053;-77
2023/01/08 09:19:53;;;;;;;70.10;34.13;;;;;;;15.14;48.83;97777.59;4997263;28;20108;-77
2023/01/08 09:22:19;;;;;;;62.10;32.13;;;;;;;15.46;47.65;97772.41;4996768;28;20030;-77
2023/01/08 09:24:45;;;;;;;51.15;28.55;;;;;;;15.65;47.18;97762.81;5013418;28;20405;-78
2023/01/08 09:27:10;;;;;;;60.42;32.03;;;;;;;16.49;45.98;97769.50;5013354;28;20061;-78
2023/01/08 09:29:36;;;;;;;74.18;41.38;;;;;;;16.55;45.74;97748.25;4996622;28;20026;-78
2023/01/08 09:32:05;;;;;;;92.28;48.63;;;;;;;16.90;45.21;97752.56;4996781;28;20566;-77
2023/01/08 09:34:31;;;;;;;91.82;47.30;;;;;;;17.45;44.28;97746.88;5013187;28;20029;-76
2023/01/08 09:36:57;;;;;;;90.47;49.08;;;;;;;17.65;43.97;97748.75;5013006;28;20400;-78
2023/01/08 09:39:22;;;;;;;87.03;47.50;;;;;;;17.60;44.24;97739.31;5013016;28;20128;-78
2023/01/08 09:41:48;;;;;;;95.28;51.00;;;;;;;17.70;43.59;97726.69;5013311;28;20017;-78
2023/01/08 09:44:17;;;;;;;94.60;52.55;;;;;;;17.97;43.38;97726.97;5012932;28;20041;-78
2023/01/08 09:46:43;;;;;;;109.07;59.17;;;;;;;18.12;42.65;97708.50;5011992;28;20029;-79
2023/01/08 09:49:14;;;;;;;114.55;62.78;;;;;;;17.51;43.67;97703.06;5009984;28;20055;-72
2023/01/08 09:51:39;;;;;;;111.82;59.65;;;;;;;17.90;43.36;97703.28;5010116;28;20021;-72
2023/01/08 09:54:06;;;;;;;104.38;57.35;;;;;;;18.13;42.88;97699.38;5012498;28;20556;-76
2023/01/08 09:56:35;;;;;;;110.70;55.50;;;;;;;18.33;42.72;97693.84;5011731;28;20504;-75
2023/01/08 09:59:03;;;;;;;86.13;47.70;;;;;;;18.62;41.74;97693.94;4996810;28;20550;-88
2023/01/08 10:01:34;;;;;;;79.05;45.80;;;;;;;18.37;41.63;97670.06;5006759;28;20045;-80
2023/01/08 10:04:05;;;;;;;91.15;47.92;;;;;;;18.55;41.41;97675.69;4988384;28;20033;-81
2023/01/08 10:06:31;;;;;;;85.72;48.00;;;;;;;18.31;41.76;97651.66;4994581;28;20065;-81
2023/01/08 10:08:57;;;;;;;78.88;43.40;;;;;;;18.37;41.69;97664.66;4996679;28;20022;-86
2023/01/08 10:11:27;;;;;;;87.88;44.00;;;;;;;18.51;42.44;97639.91;4987928;28;20025;-85
2023/01/08 10:13:55;;;;;;;78.80;41.83;;;;;;;18.19;42.04;97650.94;4999110;28;20037;-85
2023/01/08 10:16:26;;;;;;;73.97;40.30;;;;;;;18.41;41.18;97648.00;4999543;28;20341;-86
2023/01/08 10:18:51;;;;;;;72.60;40.67;;;;;;;18.74;41.29;97652.16;5008271;28;20030;-79
2023/01/08 10:21:17;;;;;;;79.97;44.53;;;;;;;18.90;40.67;97641.59;5015974;28;20029;-77
2023/01/08 10:23:50;;;;;;;74.93;41.53;;;;;;;18.57;42.73;97644.75;5016735;28;20029;-75
2023/01/08 10:26:31;;;;;;;78.00;42.53;;;;;;;18.91;40.75;97615.34;5014707;28;20131;-81
2023/01/08 10:29:08;;;;;;;79.55;43.58;;;;;;;19.00;40.84;97635.31;5007756;28;20109;-81
2023/01/08 10:31:43;;;;;;;71.82;41.90;;;;;;;19.59;39.86;97627.78;5012495;28;20039;-81
2023/01/08 10:34:09;;;;;;;55.13;31.88;;;;;;;19.97;38.86;97610.41;5008858;28;20053;-83
2023/01/08 10:36:39;;;;;;;48.75;28.20;;;;;;;20.17;38.56;97612.03;4999978;28;20025;-83
2023/01/08 10:39:05;;;;;;;39.30;21.83;;;;;;;20.39;38.15;97597.19;5000422;28;20054;-84
2023/01/08 10:41:36;;;;;;;37.55;21.42;;;;;;;20.76;37.36;97602.44;5000321;28;20029;-85
2023/01/08 10:44:04;;;;;;;20.10;12.35;;;;;;;20.85;36.92;97579.75;5013744;28;20172;-85
2023/01/08 10:46:34;;;;;;;15.30;10.18;;;;;;;20.37;36.89;97567.44;4997209;28;20030;-85
2023/01/08 10:49:02;;;;;;;14.43;9.05;;;;;;;20.05;37.80;97574.38;4997299;28;20045;-85
2023/01/08 10:51:29;;;;;;;13.68;7.35;;;;;;;19.59;37.88;97564.50;4994583;28;20194;-85
2023/01/08 10:54:00;;;;;;;15.10;8.35;;;;;;;20.44;36.98;97560.38;5002718;28;20127;-85
2023/01/08 10:56:28;;;;;;;18.27;10.52;;;;;;;21.24;36.30;97563.88;5011613;28;20041;-85
2023/01/08 10:58:54;;;;;;;18.63;9.30;;;;;;;21.19;36.20;97560.81;4997157;28;20034;-85
2023/01/08 11:01:25;;;;;;;19.63;9.10;;;;;;;21.15;36.32;97543.09;5020185;28;20029;-85
2023/01/08 11:03:53;;;;;;;14.02;8.90;;;;;;;20.68;36.78;97551.56;5036248;28;20462;-85
2023/01/08 11:06:26;;;;;;;15.48;8.73;;;;;;;21.23;35.89;97543.13;5030249;28;20026;-85
2023/01/08 11:08:56;;;;;;;12.05;7.53;;;;;;;20.72;36.51;97528.50;5027048;28;20037;-84
2023/01/08 11:11:22;;;;;;;13.52;7.60;;;;;;;20.27;37.26;97527.78;5016562;28;20029;-86
2023/01/08 11:13:59;;;;;;;14.10;8.02;;;;;;;20.30;37.15;97519.31;5017700;28;20032;-85
2023/01/08 11:16:43;;;;;;;12.10;7.35;;;;;;;20.15;37.20;97537.13;5005840;28;20511;-86
2023/01/08 11:19:29;;;;;;;21.30;11.70;;;;;;;21.97;35.35;97552.34;5001254;28;20014;-85